Time;durP1;ratioP1;P1;durP2;ratioP2;P2;SDS_P1;SDS_P2;PMS_P1;PMS_P2;Temp;Humidity;BMP_temperature;BMP_pressure;BME280_temperature;BME280_humidity;BME280_pressure;Samples;Min_cycle;Max_cycle;Signal;HPM_P1;HPM_P2
2022/10/07 00:00:47;;;;;;;;;;;;;;;;;;5055032;28;19924;-74
2022/10/07 00:03:14;;;;;;;;;;;;;;;;;;5068317;28;19929;-74
2022/10/07 00:05:40;;;;;;;;;;;;;;;;;;5074763;28;20024;-75
2022/10/07 00:08:07;;;;;;;;;;;;;;;;;;5075141;28;19925;-75
2022/10/07 00:10:37;;;;;;;;;;;;;;;;;;5074722;28;20046;-76
2022/10/07 00:13:03;;;;;;;;;;;;;;;;;;5074918;28;20019;-74
2022/10/07 00:15:30;;;;;;;;;;;;;;;;;;5074489;28;19924;-75
2022/10/07 00:17:57;;;;;;;;;;;;;;;;;;5074800;28;19991;-75
2022/10/07 00:20:24;;;;;;;;;;;;;;;;;;5074680;28;19931;-75
2022/10/07 00:22:52;;;;;;;;;;;;;;;;;;5074595;28;19967;-74
2022/10/07 00:25:18;;;;;;;;;;;;;;;;;;5074498;28;19964;-74
2022/10/07 00:27:45;;;;;;;;;;;;;;;;;;5074537;28;19963;-75
2022/10/07 00:30:12;;;;;;;;;;;;;;;;;;5073989;28;20019;-75
2022/10/07 00:32:38;;;;;;;;;;;;;;;;;;5074515;28;20280;-75
2022/10/07 00:35:07;;;;;;;;;;;;;;;;;;5074273;28;19976;-74
2022/10/07 00:37:34;;;;;;;;;;;;;;;;;;5074122;28;20280;-75
2022/10/07 00:40:01;;;;;;;;;;;;;;;;;;5074198;28;19932;-75
2022/10/07 00:42:29;;;;;;;;;;;;;;;;;;5074192;28;19959;-75
2022/10/07 00:44:55;;;;;;;;;;;;;;;;;;5072869;28;19924;-75
2022/10/07 00:47:24;;;;;;;;;;;;;;;;;;5060464;28;19960;-75
2022/10/07 00:49:52;;;;;;;;;;;;;;;;;;5053824;28;19982;-74
2022/10/07 00:52:22;;;;;;;;;;;;;;;;;;5054039;28;19958;-74
2022/10/07 00:54:51;;;;;;;;;;;;;;;;;;5054318;28;19967;-75
2022/10/07 00:57:18;;;;;;;;;;;;;;;;;;5054114;28;19931;-74
2022/10/07 00:59:44;;;;;;;;;;;;;;;;;;5053847;28;19932;-75
2022/10/07 01:02:11;;;;;;;;;;;;;;;;;;5053808;28;20437;-76
2022/10/07 01:04:38;;;;;;;;;;;;;;;;;;5053877;28;20544;-75
2022/10/07 01:07:04;;;;;;;;;;;;;;;;;;5053840;28;20023;-75
2022/10/07 01:09:32;;;;;;;;;;;;;;;;;;5053642;28;20019;-76
2022/10/07 01:12:01;;;;;;;;;;;;;;;;;;5053849;28;19925;-74
2022/10/07 01:14:33;;;;;;;;;;;;;;;;;;5053650;28;20070;-76
2022/10/07 01:17:01;;;;;;;;;;;;;;;;;;5053443;28;19979;-74
2022/10/07 01:19:38;;;;;;;;;;;;;;;;;;5053588;28;20016;-74
2022/10/07 01:22:13;;;;;;;;;;;;;;;;;;5053462;28;20375;-74
2022/10/07 01:24:42;;;;;;;;;;;;;;;;;;5053751;28;19924;-75
2022/10/07 01:27:13;;;;;;;;;;;;;;;;;;5053658;28;19967;-75
2022/10/07 01:29:42;;;;;;;;;;;;;;;;;;5053346;28;19925;-76
2022/10/07 01:32:12;;;;;;;;;;;;;;;;;;5053526;28;19925;-75
2022/10/07 01:34:38;;;;;;;;;;;;;;;;;;5053335;28;20024;-74
2022/10/07 01:37:06;;;;;;;;;;;;;;;;;;5053126;28;20366;-75
2022/10/07 01:39:37;;;;;;;;;;;;;;;;;;5052819;28;20389;-74
2022/10/07 01:42:03;;;;;;;;;;;;;;;;;;5053188;28;19932;-73
2022/10/07 01:44:31;;;;;;;;;;;;;;;;;;5052970;28;20019;-73
2022/10/07 01:46:58;;;;;;;;;;;;;;;;;;5053023;28;19924;-75
2022/10/07 01:49:25;;;;;;;;;;;;;;;;;;5052482;28;19925;-74
2022/10/07 01:51:57;;;;;;;;;;;;;;;;;;5053010;28;19925;-73
2022/10/07 01:54:27;;;;;;;;;;;;;;;;;;5053003;28;19928;-73
2022/10/07 01:57:00;;;;;;;;;;;;;;;;;;5052704;28;19928;-75
2022/10/07 01:59:54;;;;;;;;;;;;;;;;;;5052627;28;19925;-73
2022/10/07 02:02:27;;;;;;;;;;;;;;;;;;5011340;28;19924;-75
2022/10/07 02:04:57;;;;;;;;;;;;;;;;;;5072650;28;19929;-74
2022/10/07 02:07:32;;;;;;;;;;;;;;;;;;5072660;28;19987;-73
2022/10/07 02:10:03;;;;;;;;;;;;;;;;;;5072219;28;19928;-74
2022/10/07 02:12:32;;;;;;;;;;;;;;;;;;5072336;28;19929;-74
2022/10/07 02:15:01;;;;;;;;;;;;;;;;;;5072453;28;20016;-73
2022/10/07 02:17:31;;;;;;;;;;;;;;;;;;5072577;28;19935;-73
2022/10/07 02:19:58;;;;;;;;;;;;;;;;;;5072179;28;20015;-73
2022/10/07 02:22:27;;;;;;;;;;;;;;;;;;5072207;28;20400;-74
2022/10/07 02:24:57;;;;;;;;;;;;;;;;;;5072106;28;19981;-74
2022/10/07 02:27:25;;;;;;;;;;;;;;;;;;5072439;28;19928;-74
2022/10/07 02:29:53;;;;;;;;;;;;;;;;;;5072036;28;20015;-74
2022/10/07 02:32:20;;;;;;;;;;;;;;;;;;5072210;28;20015;-74
2022/10/07 02:34:50;;;;;;;;;;;;;;;;;;5072032;28;20003;-76
2022/10/07 02:37:18;;;;;;;;;;;;;;;;;;5072077;28;20456;-75
2022/10/07 02:39:45;;;;;;;;;;;;;;;;;;5072222;28;20034;-75
2022/10/07 02:42:16;;;;;;;;;;;;;;;;;;5072377;28;19925;-75
2022/10/07 02:44:47;;;;;;;;;;;;;;;;;;5072255;28;19924;-75
2022/10/07 02:47:17;;;;;;;;;;;;;;;;;;5071237;28;20341;-74
2022/10/07 02:49:48;;;;;;;;;;;;;;;;;;5072114;28;19935;-75
2022/10/07 02:52:17;;;;;;;;;;;;;;;;;;5072037;28;19974;-75
2022/10/07 02:54:46;;;;;;;;;;;;;;;;;;5073426;28;19935;-75
2022/10/07 02:57:14;;;;;;;;;;;;;;;;;;5073176;28;20448;-75
2022/10/07 02:59:41;;;;;;;;;;;;;;;;;;5072726;28;19925;-75
2022/10/07 03:02:10;;;;;;;;;;;;;;;;;;5068940;28;19932;-76
2022/10/07 03:04:37;;;;;;;;;;;;;;;;;;5053318;28;19924;-75
2022/10/07 03:07:03;;;;;;;;;;;;;;;;;;5053697;28;20020;-74
2022/10/07 03:09:31;;;;;;;;;;;;;;;;;;5057390;28;19925;-75
2022/10/07 03:11:58;;;;;;;;;;;;;;;;;;5057709;28;19959;-75
2022/10/07 03:14:24;;;;;;;;;;;;;;;;;;5057182;28;20019;-75
2022/10/07 03:16:51;;;;;;;;;;;;;;;;;;5056762;28;19983;-75
2022/10/07 03:19:17;;;;;;;;;;;;;;;;;;5056205;28;19978;-75
2022/10/07 03:21:43;;;;;;;;;;;;;;;;;;5056555;28;20011;-75
2022/10/07 03:24:10;;;;;;;;;;;;;;;;;;5057143;28;19979;-76
2022/10/07 03:26:38;;;;;;;;;;;;;;;;;;5056531;28;19924;-75
2022/10/07 03:29:07;;;;;;;;;;;;;;;;;;5056447;28;20398;-74
2022/10/07 03:31:33;;;;;;;;;;;;;;;;;;5056843;28;19924;-75
2022/10/07 03:34:00;;;;;;;;;;;;;;;;;;5056926;28;19925;-76
2022/10/07 03:36:26;;;;;;;;;;;;;;;;;;5057058;28;19972;-75
2022/10/07 03:38:54;;;;;;;;;;;;;;;;;;5056693;28;20398;-76
2022/10/07 03:41:21;;;;;;;;;;;;;;;;;;5056468;28;19931;-76
2022/10/07 03:43:49;;;;;;;;;;;;;;;;;;5055967;28;19925;-75
2022/10/07 03:46:16;;;;;;;;;;;;;;;;;;5056573;28;20387;-75
2022/10/07 03:48:42;;;;;;;;;;;;;;;;;;5056632;28;19925;-75
2022/10/07 03:51:09;;;;;;;;;;;;;;;;;;5056227;28;19924;-76
2022/10/07 03:53:37;;;;;;;;;;;;;;;;;;5056266;28;19932;-76
2022/10/07 03:56:04;;;;;;;;;;;;;;;;;;5055445;28;19971;-74
2022/10/07 03:58:30;;;;;;;;;;;;;;;;;;5054975;28;19947;-75
2022/10/07 04:01:05;;;;;;;;;;;;;;;;;;5055271;28;19975;-75
2022/10/07 04:03:31;;;;;;;;;;;;;;;;;;5070752;28;19979;-76
2022/10/07 04:05:59;;;;;;;;;;;;;;;;;;5075054;28;19979;-75
2022/10/07 04:08:27;;;;;;;;;;;;;;;;;;5074827;28;20341;-74
2022/10/07 04:10:53;;;;;;;;;;;;;;;;;;5074482;28;19924;-75
2022/10/07 04:13:20;;;;;;;;;;;;;;;;;;5075179;28;20343;-75
2022/10/07 04:15:46;;;;;;;;;;;;;;;;;;5074737;28;19925;-75
2022/10/07 04:18:14;;;;;;;;;;;;;;;;;;5074998;28;19931;-75
2022/10/07 04:20:41;;;;;;;;;;;;;;;;;;5074137;28;19924;-75
2022/10/07 04:23:07;;;;;;;;;;;;;;;;;;5074895;28;20537;-76
2022/10/07 04:25:34;;;;;;;;;;;;;;;;;;5074831;28;19964;-75
2022/10/07 04:28:01;;;;;;;;;;;;;;;;;;5074868;28;20334;-74
2022/10/07 04:30:31;;;;;;;;;;;;;;;;;;5074274;28;19994;-75
2022/10/07 04:32:57;;;;;;;;;;;;;;;;;;5074924;28;20008;-75
2022/10/07 04:35:25;;;;;;;;;;;;;;;;;;5074929;28;19924;-75
2022/10/07 04:37:52;;;;;;;;;;;;;;;;;;5074528;28;19931;-75
2022/10/07 04:40:19;;;;;;;;;;;;;;;;;;5073975;28;19925;-75
2022/10/07 04:45:29;;;;;;;;;;;;;;;;;;5074534;28;19948;-75
2022/10/07 04:47:55;;;;;;;;;;;;;;;;;;5074398;28;19928;-75
2022/10/07 04:50:22;;;;;;;;;;;;;;;;;;5074397;28;19974;-74
2022/10/07 04:52:50;;;;;;;;;;;;;;;;;;5074170;28;19929;-75
2022/10/07 04:55:16;;;;;;;;;;;;;;;;;;5074242;28;19924;-75
2022/10/07 04:57:43;;;;;;;;;;;;;;;;;;5074223;28;19968;-74
2022/10/07 05:00:10;;;;;;;;;;;;;;;;;;5073839;28;20019;-74
2022/10/07 05:02:36;;;;;;;;;;;;;;;;;;5065931;28;20387;-75
2022/10/07 05:05:03;;;;;;;;;;;;;;;;;;5054045;28;19975;-76
2022/10/07 05:07:30;;;;;;;;;;;;;;;;;;5054718;28;19925;-75
2022/10/07 05:09:58;;;;;;;;;;;;;;;;;;5053879;28;19925;-75
2022/10/07 05:12:25;;;;;;;;;;;;;;;;;;5053981;28;20021;-75
2022/10/07 05:14:52;;;;;;;;;;;;;;;;;;5053489;28;19964;-75
2022/10/07 05:17:19;;;;;;;;;;;;;;;;;;5030720;22;1819723;-78
2022/10/07 05:19:45;;;;;;;;;;;;;;;;;;5076035;28;20344;-77
2022/10/07 05:22:12;;;;;;;;;;;;;;;;;;5077366;28;20011;-77
2022/10/07 05:24:38;;;;;;;;;;;;;;;;;;5074783;28;19971;-77
2022/10/07 05:27:08;;;;;;;;;;;;;;;;;;5094372;28;19925;-78
2022/10/07 05:29:35;;;;;;;;;;;;;;;;;;5098120;28;20394;-77
2022/10/07 05:32:01;;;;;;;;;;;;;;;;;;5099542;28;19985;-78
2022/10/07 05:34:28;;;;;;;;;;;;;;;;;;5095598;28;19973;-77
2022/10/07 05:36:54;;;;;;;;;;;;;;;;;;5094881;28;20011;-76
2022/10/07 05:39:21;;;;;;;;;;;;;;;;;;5094062;28;19924;-76
2022/10/07 05:41:47;;;;;;;;;;;;;;;;;;5093873;28;19970;-77
2022/10/07 05:44:16;;;;;;;;;;;;;;;;;;5094188;28;19971;-76
2022/10/07 05:46:42;;;;;;;;;;;;;;;;;;5094894;28;19925;-78
2022/10/07 05:49:09;;;;;;;;;;;;;;;;;;5094035;28;20023;-76
2022/10/07 05:51:35;;;;;;;;;;;;;;;;;;5094114;28;19924;-76
2022/10/07 05:54:02;;;;;;;;;;;;;;;;;;5094822;28;19924;-76
2022/10/07 05:56:28;;;;;;;;;;;;;;;;;;5093616;28;19985;-77
2022/10/07 05:58:56;;;;;;;;;;;;;;;;;;5093858;28;20430;-77
2022/10/07 06:01:25;;;;;;;;;;;;;;;;;;5094011;28;19935;-77
2022/10/07 06:03:53;;;;;;;;;;;;;;;;;;5096547;28;19924;-79
2022/10/07 06:06:19;;;;;;;;;;;;;;;;;;5095220;28;19928;-77
2022/10/07 06:08:46;;;;;;;;;;;;;;;;;;5094721;28;19924;-78
2022/10/07 06:13:58;;;;;;;;;;;;;;;;;;5098034;28;19970;-78
2022/10/07 06:16:26;;;;;;;;;;;;;;;;;;5098320;28;20003;-78
2022/10/07 06:18:53;;;;;;;;;;;;;;;;;;5093396;28;20603;-77
2022/10/07 06:21:20;;;;;;;;;;;;;;;;;;5093632;28;19934;-78
2022/10/07 06:23:50;;;;;;;;;;;;;;;;;;5093376;28;20570;-77
2022/10/07 06:26:16;;;;;;;;;;;;;;;;;;5093767;28;20325;-77
2022/10/07 06:28:43;;;;;;;;;;;;;;;;;;5094533;28;20457;-77
2022/10/07 06:31:11;;;;;;;;;;;;;;;;;;5100553;28;19982;-78
2022/10/07 06:33:38;;;;;;;;;;;;;;;;;;5096004;28;19970;-77
2022/10/07 06:36:06;;;;;;;;;;;;;;;;;;5093548;28;19925;-77
2022/10/07 06:38:32;;;;;;;;;;;;;;;;;;5093329;28;19970;-77
2022/10/07 06:41:00;;;;;;;;;;;;;;;;;;5093257;28;20383;-78
2022/10/07 06:43:26;;;;;;;;;;;;;;;;;;5095556;28;19924;-77
2022/10/07 06:45:57;;;;;;;;;;;;;;;;;;5092794;28;19977;-77
2022/10/07 06:48:23;;;;;;;;;;;;;;;;;;5092782;28;20007;-77
2022/10/07 06:50:52;;;;;;;;;;;;;;;;;;5093629;28;20388;-77
2022/10/07 06:53:18;;;;;;;;;;;;;;;;;;5095066;28;20036;-76
2022/10/07 06:55:45;;;;;;;;;;;;;;;;;;5092759;28;19970;-77
2022/10/07 06:58:11;;;;;;;;;;;;;;;;;;5092435;28;19924;-77
2022/10/07 07:00:38;;;;;;;;;;;;;;;;;;5092276;28;19928;-77
2022/10/07 07:03:04;;;;;;;;;;;;;;;;;;5092835;28;20397;-78
2022/10/07 07:05:34;;;;;;;;;;;;;;;;;;5093145;28;20015;-77
2022/10/07 07:08:01;;;;;;;;;;;;;;;;;;5093587;28;19936;-78
2022/10/07 07:10:28;;;;;;;;;;;;;;;;;;5093066;28;20022;-77
2022/10/07 07:12:55;;;;;;;;;;;;;;;;;;5094406;28;20077;-76
2022/10/07 07:15:21;;;;;;;;;;;;;;;;;;5094499;28;20015;-77
2022/10/07 07:17:48;;;;;;;;;;;;;;;;;;5093687;28;19966;-77
2022/10/07 07:20:15;;;;;;;;;;;;;;;;;;5092303;28;19924;-77
2022/10/07 07:22:42;;;;;;;;;;;;;;;;;;5092021;28;20010;-77
2022/10/07 07:25:10;;;;;;;;;;;;;;;;;;5092416;28;19924;-77
2022/10/07 07:27:37;;;;;;;;;;;;;;;;;;5093295;28;19931;-78
2022/10/07 07:30:04;;;;;;;;;;;;;;;;;;5092837;28;20447;-77
2022/10/07 07:32:30;;;;;;;;;;;;;;;;;;5092641;28;19928;-77
2022/10/07 07:34:59;;;;;;;;;;;;;;;;;;5092766;28;20014;-78
2022/10/07 07:37:28;;;;;;;;;;;;;;;;;;5092204;28;20333;-78
2022/10/07 07:39:54;;;;;;;;;;;;;;;;;;5092356;28;20041;-79
2022/10/07 07:42:22;;;;;;;;;;;;;;;;;;5094371;28;19924;-77
2022/10/07 07:44:49;;;;;;;;;;;;;;;;;;5090409;28;19931;-77
2022/10/07 07:47:16;;;;;;;;;;;;;;;;;;5089685;28;20432;-79
2022/10/07 07:49:42;;;;;;;;;;;;;;;;;;5091306;28;19936;-79
2022/10/07 07:52:09;;;;;;;;;;;;;;;;;;5091219;28;19924;-78
2022/10/07 07:54:36;;;;;;;;;;;;;;;;;;5093520;28;19931;-78
2022/10/07 07:57:03;;;;;;;;;;;;;;;;;;5095173;28;20020;-76
2022/10/07 07:59:31;;;;;;;;;;;;;;;;;;5095594;28;20426;-78
2022/10/07 08:01:58;;;;;;;;;;;;;;;;;;5097305;28;19931;-78
2022/10/07 08:04:25;;;;;;;;;;;;;;;;;;5096054;28;19947;-78
2022/10/07 08:06:51;;;;;;;;;;;;;;;;;;5095678;28;19928;-79
2022/10/07 08:09:17;;;;;;;;;;;;;;;;;;5096676;28;19924;-78
2022/10/07 08:11:44;;;;;;;;;;;;;;;;;;5094083;28;19927;-77
2022/10/07 08:14:11;;;;;;;;;;;;;;;;;;5094170;28;20415;-78
2022/10/07 08:16:39;;;;;;;;;;;;;;;;;;5098077;28;19931;-78
2022/10/07 08:19:06;;;;;;;;;;;;;;;;;;5097487;28;20027;-78
2022/10/07 08:21:32;;;;;;;;;;;;;;;;;;5100350;28;20011;-78
2022/10/07 08:23:59;;;;;;;;;;;;;;;;;;5099824;28;19924;-78
2022/10/07 08:26:27;;;;;;;;;;;;;;;;;;5094004;28;20460;-78
2022/10/07 08:28:54;;;;;;;;;;;;;;;;;;5094587;28;19945;-80
2022/10/07 08:31:21;;;;;;;;;;;;;;;;;;5094315;28;20003;-79
2022/10/07 08:33:49;;;;;;;;;;;;;;;;;;5095841;28;19925;-80
2022/10/07 08:36:17;;;;;;;;;;;;;;;;;;5099265;28;19974;-78
2022/10/07 08:38:44;;;;;;;;;;;;;;;;;;5094493;28;20011;-76
2022/10/07 08:41:17;;;;;;;;;;;;;;;;;;5097770;28;19924;-79
2022/10/07 08:43:44;;;;;;;;;;;;;;;;;;5094436;28;19932;-78
2022/10/07 08:46:12;;;;;;;;;;;;;;;;;;5093084;28;20022;-78
2022/10/07 08:48:40;;;;;;;;;;;;;;;;;;5092563;28;20015;-77
2022/10/07 08:51:13;;;;;;;;;;;;;;;;;;5091856;28;20011;-78
2022/10/07 08:53:43;;;;;;;;;;;;;;;;;;5091438;28;19931;-76
2022/10/07 08:56:12;;;;;;;;;;;;;;;;;;5113229;28;19981;-76
2022/10/07 08:58:43;;;;;;;;;;;;;;;;;;5112888;28;19931;-78
2022/10/07 09:01:14;;;;;;;;;;;;;;;;;;5113184;28;19924;-77
2022/10/07 09:03:45;;;;;;;;;;;;;;;;;;5095551;28;19924;-78
2022/10/07 09:06:13;;;;;;;;;;;;;;;;;;5091646;28;20018;-77
2022/10/07 09:08:43;;;;;;;;;;;;;;;;;;5092098;28;19924;-78
2022/10/07 09:11:15;;;;;;;;;;;;;;;;;;5092478;28;20019;-76
2022/10/07 09:13:45;;;;;;;;;;;;;;;;;;5092562;28;19928;-78
2022/10/07 09:16:14;;;;;;;;;;;;;;;;;;5092576;28;20290;-78
2022/10/07 09:18:42;;;;;;;;;;;;;;;;;;5092916;28;20012;-75
2022/10/07 09:21:11;;;;;;;;;;;;;;;;;;5093333;28;19924;-79
2022/10/07 09:23:39;;;;;;;;;;;;;;;;;;5096857;28;19993;-77
2022/10/07 09:26:09;;;;;;;;;;;;;;;;;;5093603;28;20008;-78
2022/10/07 09:28:35;;;;;;;;;;;;;;;;;;5093936;28;19939;-81
2022/10/07 09:31:02;;;;;;;;;;;;;;;;;;5092732;28;19932;-77
2022/10/07 09:33:29;;;;;;;;;;;;;;;;;;5092202;28;19924;-76
2022/10/07 09:35:56;;;;;;;;;;;;;;;;;;5091854;28;19924;-78
2022/10/07 09:38:30;;;;;;;;;;;;;;;;;;5092832;28;19924;-78
2022/10/07 09:41:16;;;;;;;;;;;;;;;;;;5091607;28;20393;-78
2022/10/07 09:43:57;;;;;;;;;;;;;;;;;;5091384;28;20294;-78
2022/10/07 09:46:38;;;;;;;;;;;;;;;;;;5089089;28;20297;-77
2022/10/07 09:49:06;;;;;;;;;;;;;;;;;;5089014;28;19978;-77
2022/10/07 09:51:34;;;;;;;;;;;;;;;;;;5097148;28;19924;-80
2022/10/07 09:54:01;;;;;;;;;;;;;;;;;;5096500;28;20401;-78
2022/10/07 09:56:45;;;;;;;;;;;;;;;;;;5091787;28;19925;-76
2022/10/07 09:59:20;;;;;;;;;;;;;;;;;;5091866;28;20386;-78
2022/10/07 10:01:51;;;;;;;;;;;;;;;;;;5093419;28;19924;-77
2022/10/07 10:04:19;;;;;;;;;;;;;;;;;;5095049;28;20381;-80
2022/10/07 10:06:46;;;;;;;;;;;;;;;;;;5091278;28;19932;-76
2022/10/07 10:09:13;;;;;;;;;;;;;;;;;;5090761;28;20012;-76
2022/10/07 10:11:39;;;;;;;;;;;;;;;;;;5091174;28;19928;-76
2022/10/07 10:14:26;;;;;;;;;;;;;;;;;;5091565;28;19982;-76
2022/10/07 10:16:54;;;;;;;;;;;;;;;;;;5090465;28;20118;-77
2022/10/07 10:19:22;;;;;;;;;;;;;;;;;;5091291;28;19971;-77
2022/10/07 10:21:51;;;;;;;;;;;;;;;;;;5091350;28;19988;-77
2022/10/07 10:26:24;;;;;;;;;;;;;;;;;;5091173;28;19924;-77
2022/10/07 10:27:05;;;;;;;;;;;;;;;;;;5091169;28;19924;-77
2022/10/07 10:29:46;;;;;;;;;;;;;;;;;;5091091;28;20560;-76
2022/10/07 10:32:37;;;;;;;;;;;;;;;;;;5091006;28;20433;-78
2022/10/07 10:35:08;;;;;;;;;;;;;;;;;;5091603;28;19947;-78
2022/10/07 10:37:41;;;;;;;;;;;;;;;;;;5091338;28;19930;-77
2022/10/07 10:40:13;;;;;;;;;;;;;;;;;;5090704;28;19939;-77
2022/10/07 10:42:43;;;;;;;;;;;;;;;;;;5091006;28;20026;-78
2022/10/07 10:45:17;;;;;;;;;;;;;;;;;;5091112;28;19931;-78
2022/10/07 10:47:59;;;;;;;;;;;;;;;;;;5091277;28;20044;-78
2022/10/07 10:50:30;;;;;;;;;;;;;;;;;;5089157;28;19924;-78
2022/10/07 10:53:02;;;;;;;;;;;;;;;;;;5091721;28;19924;-78
2022/10/07 10:55:35;;;;;;;;;;;;;;;;;;5092287;28;20018;-78
2022/10/07 10:58:16;;;;;;;;;;;;;;;;;;5093585;28;19924;-77
2022/10/07 11:00:49;;;;;;;;;;;;;;;;;;5092825;28;19935;-77
2022/10/07 11:03:23;;;;;;;;;;;;;;;;;;5080022;28;20053;-78
2022/10/07 11:05:52;;;;;;;;;;;;;;;;;;5071227;28;20015;-77
2022/10/07 11:08:20;;;;;;;;;;;;;;;;;;5071099;28;19931;-78
2022/10/07 11:10:49;;;;;;;;;;;;;;;;;;5071306;28;19924;-77
2022/10/07 11:13:22;;;;;;;;;;;;;;;;;;5071553;28;19924;-76
2022/10/07 11:15:50;;;;;;;;;;;;;;;;;;5070316;28;20357;-76
2022/10/07 11:18:20;;;;;;;;;;;;;;;;;;5070524;28;19924;-75
2022/10/07 11:20:48;;;;;;;;;;;;;;;;;;5076445;28;19964;-76
2022/10/07 11:23:20;;;;;;;;;;;;;;;;;;5080052;28;19924;-77
2022/10/07 11:25:49;;;;;;;;;;;;;;;;;;5081195;28;20019;-77
2022/10/07 11:28:19;;;;;;;;;;;;;;;;;;5079763;28;20347;-77
2022/10/07 11:30:50;;;;;;;;;;;;;;;;;;5082083;28;20007;-77
2022/10/07 11:33:20;;;;;;;;;;;;;;;;;;5091299;28;19924;-76
2022/10/07 11:35:50;;;;;;;;;;;;;;;;;;5094396;28;19970;-76
2022/10/07 11:38:20;;;;;;;;;;;;;;;;;;5094294;28;19963;-78
2022/10/07 11:40:49;;;;;;;;;;;;;;;;;;5093678;28;19971;-78
2022/10/07 11:43:18;;;;;;;;;;;;;;;;;;5094267;28;19924;-77
2022/10/07 11:45:50;;;;;;;;;;;;;;;;;;5093644;28;19924;-78
2022/10/07 11:48:20;;;;;;;;;;;;;;;;;;5093978;28;19924;-76
2022/10/07 11:50:48;;;;;;;;;;;;;;;;;;5093696;28;20345;-75
2022/10/07 11:53:18;;;;;;;;;;;;;;;;;;5094255;28;19930;-77
2022/10/07 11:55:47;;;;;;;;;;;;;;;;;;5093896;28;19928;-76
2022/10/07 11:58:22;;;;;;;;;;;;;;;;;;5094167;28;19942;-76
2022/10/07 12:00:48;;;;;;;;;;;;;;;;;;5099237;28;20018;-77
2022/10/07 12:03:44;;;;;;;;;;;;;;;;;;5083302;28;19924;-77
2022/10/07 12:06:11;;;;;;;;;;;;;;;;;;5072183;28;20019;-77
2022/10/07 12:08:40;;;;;;;;;;;;;;;;;;5073010;28;20084;-76
2022/10/07 12:11:25;;;;;;;;;;;;;;;;;;5073220;28;19925;-76
2022/10/07 12:13:53;;;;;;;;;;;;;;;;;;5073545;28;19928;-76
2022/10/07 12:16:40;;;;;;;;;;;;;;;;;;5073236;28;19960;-76
2022/10/07 12:19:18;;;;;;;;;;;;;;;;;;5072804;28;20332;-76
2022/10/07 12:22:18;;;;;;;;;;;;;;;;;;5073313;28;19928;-75
2022/10/07 12:24:46;;;;;;;;;;;;;;;;;;5010570;28;19925;-76
2022/10/07 12:27:14;;;;;;;;;;;;;;;;;;5012191;28;20020;-75
2022/10/07 12:29:49;;;;;;;;;;;;;;;;;;5039204;28;20011;-75
2022/10/07 12:32:34;;;;;;;;;;;;;;;;;;5072449;28;19926;-76
2022/10/07 12:35:15;;;;;;;;;;;;;;;;;;5072775;28;19979;-77
2022/10/07 12:37:48;;;;;;;;;;;;;;;;;;5071939;28;20011;-77
2022/10/07 12:40:21;;;;;;;;;;;;;;;;;;5072620;28;19924;-76
2022/10/07 12:42:52;;;;;;;;;;;;;;;;;;5073632;28;19924;-78
2022/10/07 12:45:21;;;;;;;;;;;;;;;;;;5073836;28;20003;-77
2022/10/07 12:47:49;;;;;;;;;;;;;;;;;;5072548;28;20491;-77
2022/10/07 12:50:16;;;;;;;;;;;;;;;;;;5072543;28;19930;-77
2022/10/07 12:52:45;;;;;;;;;;;;;;;;;;5072490;28;19924;-77
2022/10/07 12:55:14;;;;;;;;;;;;;;;;;;5072266;28;20019;-76
2022/10/07 12:57:42;;;;;;;;;;;;;;;;;;5072828;28;19924;-77
2022/10/07 13:00:11;;;;;;;;;;;;;;;;;;5071753;28;20044;-75
2022/10/07 13:03:02;;;;;;;;;;;;;;;;;;5081667;28;19924;-78
2022/10/07 13:05:40;;;;;;;;;;;;;;;;;;5093409;28;19924;-77
2022/10/07 13:08:25;;;;;;;;;;;;;;;;;;5092844;28;19924;-76
2022/10/07 13:11:09;;;;;;;;;;;;;;;;;;5092489;28;19938;-76
2022/10/07 13:13:38;;;;;;;;;;;;;;;;;;5091697;28;20412;-76
2022/10/07 13:16:08;;;;;;;;;;;;;;;;;;5092933;28;19931;-77
2022/10/07 13:18:40;;;;;;;;;;;;;;;;;;5092359;28;19928;-77
2022/10/07 13:21:10;;;;;;;;;;;;;;;;;;5091580;28;19934;-77
2022/10/07 13:23:37;;;;;;;;;;;;;;;;;;5092860;28;19924;-77
2022/10/07 13:26:04;;;;;;;;;;;;;;;;;;5092372;28;20027;-77
2022/10/07 13:28:38;;;;;;;;;;;;;;;;;;5091584;28;20068;-76
2022/10/07 13:31:15;;;;;;;;;;;;;;;;;;5092636;28;19934;-75
2022/10/07 13:33:43;;;;;;;;;;;;;;;;;;5092504;28;19963;-78
2022/10/07 13:36:14;;;;;;;;;;;;;;;;;;5091731;28;20302;-76
2022/10/07 13:38:41;;;;;;;;;;;;;;;;;;5091953;28;19924;-76
2022/10/07 13:41:09;;;;;;;;;;;;;;;;;;5087871;28;20474;-77
2022/10/07 13:43:36;;;;;;;;;;;;;;;;;;5083418;28;19967;-76
2022/10/07 13:46:03;;;;;;;;;;;;;;;;;;5083790;28;19947;-78
2022/10/07 13:48:34;;;;;;;;;;;;;;;;;;5092404;28;20349;-76
2022/10/07 13:51:02;;;;;;;;;;;;;;;;;;5092548;28;19924;-76
2022/10/07 13:53:30;;;;;;;;;;;;;;;;;;5092039;28;20024;-76
2022/10/07 13:56:07;;;;;;;;;;;;;;;;;;5092730;28;20278;-77
2022/10/07 13:58:34;;;;;;;;;;;;;;;;;;5082833;28;20011;-76
2022/10/07 14:01:02;;;;;;;;;;;;;;;;;;5071585;28;20024;-76
2022/10/07 14:03:29;;;;;;;;;;;;;;;;;;5086969;28;19928;-77
2022/10/07 14:05:55;;;;;;;;;;;;;;;;;;5091747;28;20003;-76
2022/10/07 14:08:26;;;;;;;;;;;;;;;;;;5091636;28;19930;-76
2022/10/07 14:10:55;;;;;;;;;;;;;;;;;;5091166;28;20019;-76
2022/10/07 14:13:22;;;;;;;;;;;;;;;;;;5091617;28;19934;-76
2022/10/07 14:15:51;;;;;;;;;;;;;;;;;;5091791;28;20007;-76
2022/10/07 14:18:18;;;;;;;;;;;;;;;;;;5091724;28;19924;-78
2022/10/07 14:20:48;;;;;;;;;;;;;;;;;;5092176;28;20019;-77
2022/10/07 14:23:18;;;;;;;;;;;;;;;;;;5091349;28;20027;-77
2022/10/07 14:25:52;;;;;;;;;;;;;;;;;;5091852;28;20375;-76
2022/10/07 14:28:21;;;;;;;;;;;;;;;;;;5091273;28;19925;-77
2022/10/07 14:36:37;;;;;;;;;;;;;;;;;;5091009;28;19947;-76
2022/10/07 14:39:18;;;;;;;;;;;;;;;;;;5090859;28;19924;-76
2022/10/07 14:41:46;;;;;;;;;;;;;;;;;;5090762;28;19975;-76
2022/10/07 14:44:13;;;;;;;;;;;;;;;;;;5090430;28;19928;-76
2022/10/07 14:46:40;;;;;;;;;;;;;;;;;;5091740;28;19924;-75
2022/10/07 14:49:08;;;;;;;;;;;;;;;;;;5091115;28;19963;-76
2022/10/07 14:51:35;;;;;;;;;;;;;;;;;;5091145;28;20011;-76
2022/10/07 14:54:02;;;;;;;;;;;;;;;;;;5090931;28;19923;-75
2022/10/07 14:56:30;;;;;;;;;;;;;;;;;;5090481;28;19924;-77
2022/10/07 14:58:58;;;;;;;;;;;;;;;;;;5090176;28;19974;-77
2022/10/07 15:01:27;;;;;;;;;;;;;;;;;;5090665;28;19928;-77
2022/10/07 15:03:53;;;;;;;;;;;;;;;;;;5071251;28;19932;-77
2022/10/07 15:06:20;;;;;;;;;;;;;;;;;;5070262;28;19967;-77
2022/10/07 15:08:47;;;;;;;;;;;;;;;;;;5070090;28;19924;-76
2022/10/07 15:11:14;;;;;;;;;;;;;;;;;;5070352;28;20053;-76
2022/10/07 15:13:41;;;;;;;;;;;;;;;;;;5070549;28;19970;-76
2022/10/07 15:16:13;;;;;;;;;;;;;;;;;;5070443;28;19925;-76
2022/10/07 15:18:39;;;;;;;;;;;;;;;;;;5070874;28;19924;-77
2022/10/07 15:21:06;;;;;;;;;;;;;;;;;;5070398;28;19999;-76
2022/10/07 15:23:32;;;;;;;;;;;;;;;;;;5070506;28;20012;-77
2022/10/07 15:25:59;;;;;;;;;;;;;;;;;;5070214;28;19925;-76
2022/10/07 15:28:25;;;;;;;;;;;;;;;;;;5070679;28;19928;-75
2022/10/07 15:31:00;;;;;;;;;;;;;;;;;;5071034;28;20379;-77
2022/10/07 15:33:28;;;;;;;;;;;;;;;;;;5070850;28;19971;-77
2022/10/07 15:35:55;;;;;;;;;;;;;;;;;;5070304;28;20016;-76
2022/10/07 15:38:21;;;;;;;;;;;;;;;;;;5069960;28;19975;-77
2022/10/07 15:40:51;;;;;;;;;;;;;;;;;;5070696;28;20011;-77
2022/10/07 15:43:17;;;;;;;;;;;;;;;;;;5070743;28;20028;-76
2022/10/07 15:45:44;;;;;;;;;;;;;;;;;;5069841;28;19925;-76
2022/10/07 15:48:11;;;;;;;;;;;;;;;;;;5070058;28;19931;-76
2022/10/07 15:50:38;;;;;;;;;;;;;;;;;;5069960;28;20306;-76
2022/10/07 15:53:05;;;;;;;;;;;;;;;;;;5070271;28;20003;-76
2022/10/07 15:55:32;;;;;;;;;;;;;;;;;;5070145;28;19983;-77
2022/10/07 15:57:58;;;;;;;;;;;;;;;;;;5069546;28;20386;-76
2022/10/07 16:00:25;;;;;;;;;;;;;;;;;;5070089;28;20387;-76
2022/10/07 16:02:53;;;;;;;;;;;;;;;;;;5079976;28;19932;-76
2022/10/07 16:05:19;;;;;;;;;;;;;;;;;;5090346;28;19925;-76
2022/10/07 16:07:47;;;;;;;;;;;;;;;;;;5089725;28;19978;-76
2022/10/07 16:10:13;;;;;;;;;;;;;;;;;;5089663;28;19979;-77
2022/10/07 16:12:40;;;;;;;;;;;;;;;;;;5090012;28;19990;-77
2022/10/07 16:15:07;;;;;;;;;;;;;;;;;;5091283;28;19971;-77
2022/10/07 16:17:33;;;;;;;;;;;;;;;;;;5093407;28;20302;-77
2022/10/07 16:20:02;;;;;;;;;;;;;;;;;;5093549;28;20001;-77
2022/10/07 16:22:28;;;;;;;;;;;;;;;;;;5093376;28;19928;-77
2022/10/07 16:24:56;;;;;;;;;;;;;;;;;;5093594;28;19979;-76
2022/10/07 16:30:39;;;;;;;;;;;;;;;;;;5093667;28;19975;-76
2022/10/07 16:32:54;;;;;;;;;;;;;;;;;;5093479;28;19935;-76
2022/10/07 16:35:20;;;;;;;;;;;;;;;;;;5093558;28;20018;-77
2022/10/07 16:37:47;;;;;;;;;;;;;;;;;;5093019;28;20423;-76
2022/10/07 16:40:15;;;;;;;;;;;;;;;;;;5092908;28;19924;-77
2022/10/07 16:42:41;;;;;;;;;;;;;;;;;;5092969;28;20453;-77
2022/10/07 16:45:08;;;;;;;;;;;;;;;;;;5092999;28;19988;-77
2022/10/07 16:47:35;;;;;;;;;;;;;;;;;;5092984;28;20015;-77
2022/10/07 16:50:01;;;;;;;;;;;;;;;;;;5093030;28;19924;-76
2022/10/07 16:52:28;;;;;;;;;;;;;;;;;;5092838;28;20018;-76
2022/10/07 16:54:54;;;;;;;;;;;;;;;;;;5092499;28;20014;-83
2022/10/07 16:57:22;;;;;;;;;;;;;;;;;;5094767;28;19928;-76
2022/10/07 16:59:52;;;;;;;;;;;;;;;;;;5092482;28;20015;-75
2022/10/07 17:02:18;;;;;;;;;;;;;;;;;;5093015;28;19924;-75
2022/10/07 17:04:45;;;;;;;;;;;;;;;;;;5092663;28;19924;-75
2022/10/07 17:07:11;;;;;;;;;;;;;;;;;;5092762;28;19970;-74
2022/10/07 17:09:38;;;;;;;;;;;;;;;;;;5092672;28;19971;-75
2022/10/07 17:12:05;;;;;;;;;;;;;;;;;;5092608;28;19924;-75